Terminal Aerodrome Forecast
Issued by NWS

Home | Current Version | Previous Version | Text Only | Print | Product List | Glossary On
Versions: 1 2 3 4 5 6 7 8 9 10 11 12 13 14 15 16 17 18 19 20 21 22 23 24 25 26 27 28 29 30 31 32 33 34 35 36 37 38 39 40 41 42 43 44 45 46 47
000
FTAK31 PAFA 020829 AAB
TAFAOT
TAF AMD
PAOT 020829Z 0208/0306 17006KT P6SM SCT005 OVC030
      TEMPO 0209/0212 4SM BR BKN005
     FM021200 21008KT 5SM BR OVC007
     FM021800 21010KT P6SM OVC010
     FM022000 22010KT P6SM OVC015=

USA.gov is the U.S. government's official web portal to all federal, state and local government web resources and services.